sensor_id;sensor_type;location;lat;lon;timestamp;temperature;humidity
38239;DHT22;24035;48.900;9.188;2022-11-10T00:00:42;11.40;99.90
38239;DHT22;24035;48.900;9.188;2022-11-10T00:03:09;11.30;99.90
38239;DHT22;24035;48.900;9.188;2022-11-10T00:05:36;11.30;99.90
38239;DHT22;24035;48.900;9.188;2022-11-10T00:08:04;11.30;99.90
38239;DHT22;24035;48.900;9.188;2022-11-10T00:10:30;11.30;99.90
38239;DHT22;24035;48.900;9.188;2022-11-10T00:13:03;11.30;99.90
38239;DHT22;24035;48.900;9.188;2022-11-10T00:15:28;11.30;99.90
38239;DHT22;24035;48.900;9.188;2022-11-10T00:18:32;11.30;99.90
38239;DHT22;24035;48.900;9.188;2022-11-10T00:21:03;11.30;99.90
38239;DHT22;24035;48.900;9.188;2022-11-10T00:23:28;11.30;99.90
38239;DHT22;24035;48.900;9.188;2022-11-10T00:25:54;11.30;74.30
38239;DHT22;24035;48.900;9.188;2022-11-10T00:28:20;11.30;99.90
38239;DHT22;24035;48.900;9.188;2022-11-10T00:30:45;11.30;99.90
38239;DHT22;24035;48.900;9.188;2022-11-10T00:33:11;11.20;99.90
38239;DHT22;24035;48.900;9.188;2022-11-10T00:35:36;11.20;99.90
38239;DHT22;24035;48.900;9.188;2022-11-10T00:38:02;11.20;99.90
38239;DHT22;24035;48.900;9.188;2022-11-10T00:40:28;11.20;99.90
38239;DHT22;24035;48.900;9.188;2022-11-10T00:42:53;11.10;63.70
38239;DHT22;24035;48.900;9.188;2022-11-10T00:45:19;11.10;51.00
38239;DHT22;24035;48.900;9.188;2022-11-10T00:47:45;11.00;99.90
38239;DHT22;24035;48.900;9.188;2022-11-10T00:50:10;10.90;99.90
38239;DHT22;24035;48.900;9.188;2022-11-10T00:52:36;10.80;1.00
38239;DHT22;24035;48.900;9.188;2022-11-10T00:55:02;10.80;1.00
38239;DHT22;24035;48.900;9.188;2022-11-10T00:57:28;10.70;1.00
38239;DHT22;24035;48.900;9.188;2022-11-10T00:59:54;10.70;1.00
38239;DHT22;24035;48.900;9.188;2022-11-10T01:02:19;10.60;1.00
38239;DHT22;24035;48.900;9.188;2022-11-10T01:04:45;10.50;1.00
38239;DHT22;24035;48.900;9.188;2022-11-10T01:07:10;10.40;97.30
38239;DHT22;24035;48.900;9.188;2022-11-10T01:09:36;10.40;99.90
38239;DHT22;24035;48.900;9.188;2022-11-10T01:12:02;10.50;1.00
38239;DHT22;24035;48.900;9.188;2022-11-10T01:14:28;10.50;11.90
38239;DHT22;24035;48.900;9.188;2022-11-10T01:16:53;10.50;12.70
38239;DHT22;24035;48.900;9.188;2022-11-10T01:19:19;10.60;99.90
38239;DHT22;24035;48.900;9.188;2022-11-10T01:21:44;10.60;99.90
38239;DHT22;24035;48.900;9.188;2022-11-10T01:24:10;10.70;1.00
38239;DHT22;24035;48.900;9.188;2022-11-10T01:26:36;10.60;99.90
38239;DHT22;24035;48.900;9.188;2022-11-10T01:29:01;10.70;99.90
38239;DHT22;24035;48.900;9.188;2022-11-10T01:31:28;10.70;99.90
38239;DHT22;24035;48.900;9.188;2022-11-10T01:33:54;10.70;99.90
38239;DHT22;24035;48.900;9.188;2022-11-10T01:36:19;10.60;1.00
38239;DHT22;24035;48.900;9.188;2022-11-10T01:38:45;10.50;1.00
38239;DHT22;24035;48.900;9.188;2022-11-10T01:41:12;10.40;1.00
38239;DHT22;24035;48.900;9.188;2022-11-10T01:43:38;10.40;1.00
38239;DHT22;24035;48.900;9.188;2022-11-10T01:46:09;10.40;1.00
38239;DHT22;24035;48.900;9.188;2022-11-10T01:51:17;10.40;20.90
38239;DHT22;24035;48.900;9.188;2022-11-10T01:53:49;10.40;1.00
38239;DHT22;24035;48.900;9.188;2022-11-10T01:56:16;10.40;1.00
38239;DHT22;24035;48.900;9.188;2022-11-10T01:58:50;10.30;1.00
38239;DHT22;24035;48.900;9.188;2022-11-10T02:01:18;10.20;1.00
38239;DHT22;24035;48.900;9.188;2022-11-10T02:03:49;10.10;1.00
38239;DHT22;24035;48.900;9.188;2022-11-10T02:06:16;10.10;1.00
38239;DHT22;24035;48.900;9.188;2022-11-10T02:08:43;10.10;1.00
38239;DHT22;24035;48.900;9.188;2022-11-10T02:11:10;10.00;1.00
38239;DHT22;24035;48.900;9.188;2022-11-10T02:13:36;10.00;11.10
38239;DHT22;24035;48.900;9.188;2022-11-10T02:16:02;10.00;99.90
38239;DHT22;24035;48.900;9.188;2022-11-10T02:18:28;10.10;1.00
38239;DHT22;24035;48.900;9.188;2022-11-10T02:20:54;10.00;99.90
38239;DHT22;24035;48.900;9.188;2022-11-10T02:25:55;9.90;99.90
38239;DHT22;24035;48.900;9.188;2022-11-10T02:28:21;9.80;99.90
38239;DHT22;24035;48.900;9.188;2022-11-10T02:30:48;9.70;99.90
38239;DHT22;24035;48.900;9.188;2022-11-10T02:33:14;9.60;99.90
38239;DHT22;24035;48.900;9.188;2022-11-10T02:35:43;9.60;99.90
38239;DHT22;24035;48.900;9.188;2022-11-10T02:38:09;9.60;1.00
38239;DHT22;24035;48.900;9.188;2022-11-10T02:40:35;9.50;1.00
38239;DHT22;24035;48.900;9.188;2022-11-10T02:43:03;9.40;99.90
38239;DHT22;24035;48.900;9.188;2022-11-10T02:45:29;9.30;1.00
38239;DHT22;24035;48.900;9.188;2022-11-10T02:47:55;9.30;1.00
38239;DHT22;24035;48.900;9.188;2022-11-10T02:50:21;9.20;1.00
38239;DHT22;24035;48.900;9.188;2022-11-10T02:52:47;9.20;1.00
38239;DHT22;24035;48.900;9.188;2022-11-10T02:55:13;9.10;1.00
38239;DHT22;24035;48.900;9.188;2022-11-10T02:57:39;9.00;1.00
38239;DHT22;24035;48.900;9.188;2022-11-10T03:00:05;9.10;99.90
38239;DHT22;24035;48.900;9.188;2022-11-10T03:02:32;9.00;99.90
38239;DHT22;24035;48.900;9.188;2022-11-10T03:07:41;9.10;99.90
38239;DHT22;24035;48.900;9.188;2022-11-10T03:10:07;9.00;99.90
38239;DHT22;24035;48.900;9.188;2022-11-10T03:12:33;9.00;99.90
38239;DHT22;24035;48.900;9.188;2022-11-10T03:14:58;8.90;99.90
38239;DHT22;24035;48.900;9.188;2022-11-10T03:17:24;8.90;99.90
38239;DHT22;24035;48.900;9.188;2022-11-10T03:19:50;8.80;99.90
38239;DHT22;24035;48.900;9.188;2022-11-10T03:22:16;8.80;99.90
38239;DHT22;24035;48.900;9.188;2022-11-10T03:24:41;8.80;99.90
38239;DHT22;24035;48.900;9.188;2022-11-10T03:27:07;8.80;99.90
38239;DHT22;24035;48.900;9.188;2022-11-10T03:29:33;8.80;1.00
38239;DHT22;24035;48.900;9.188;2022-11-10T03:31:58;8.80;1.00
38239;DHT22;24035;48.900;9.188;2022-11-10T03:34:24;8.80;1.00
38239;DHT22;24035;48.900;9.188;2022-11-10T03:36:50;8.90;1.00
38239;DHT22;24035;48.900;9.188;2022-11-10T03:39:16;8.90;1.00
38239;DHT22;24035;48.900;9.188;2022-11-10T03:41:41;8.90;1.00
38239;DHT22;24035;48.900;9.188;2022-11-10T03:44:07;8.90;1.00
38239;DHT22;24035;48.900;9.188;2022-11-10T03:46:33;8.80;1.00
38239;DHT22;24035;48.900;9.188;2022-11-10T03:48:59;8.80;1.00
38239;DHT22;24035;48.900;9.188;2022-11-10T03:51:24;8.70;1.00
38239;DHT22;24035;48.900;9.188;2022-11-10T03:53:50;8.70;1.00
38239;DHT22;24035;48.900;9.188;2022-11-10T03:56:16;8.80;1.00
38239;DHT22;24035;48.900;9.188;2022-11-10T03:58:42;8.80;1.00
38239;DHT22;24035;48.900;9.188;2022-11-10T04:01:08;8.90;1.00
38239;DHT22;24035;48.900;9.188;2022-11-10T04:03:33;9.00;1.00
38239;DHT22;24035;48.900;9.188;2022-11-10T04:05:59;9.00;1.00
38239;DHT22;24035;48.900;9.188;2022-11-10T04:08:44;9.00;1.00
38239;DHT22;24035;48.900;9.188;2022-11-10T04:11:26;8.90;1.00
38239;DHT22;24035;48.900;9.188;2022-11-10T04:14:10;8.90;1.00
38239;DHT22;24035;48.900;9.188;2022-11-10T04:16:55;8.90;1.00
38239;DHT22;24035;48.900;9.188;2022-11-10T04:19:21;8.80;1.00
38239;DHT22;24035;48.900;9.188;2022-11-10T04:21:47;8.80;1.00
38239;DHT22;24035;48.900;9.188;2022-11-10T04:24:13;8.70;1.00
38239;DHT22;24035;48.900;9.188;2022-11-10T04:26:39;8.60;1.00
38239;DHT22;24035;48.900;9.188;2022-11-10T04:29:08;8.50;1.00
38239;DHT22;24035;48.900;9.188;2022-11-10T04:31:37;8.50;1.00
38239;DHT22;24035;48.900;9.188;2022-11-10T04:34:05;8.50;1.00
38239;DHT22;24035;48.900;9.188;2022-11-10T04:36:33;8.30;1.00
38239;DHT22;24035;48.900;9.188;2022-11-10T04:39:00;8.30;1.00
38239;DHT22;24035;48.900;9.188;2022-11-10T04:41:27;8.20;1.00
38239;DHT22;24035;48.900;9.188;2022-11-10T04:43:54;8.40;1.00
38239;DHT22;24035;48.900;9.188;2022-11-10T04:46:29;8.30;1.00
38239;DHT22;24035;48.900;9.188;2022-11-10T04:48:55;8.30;1.00
38239;DHT22;24035;48.900;9.188;2022-11-10T04:51:33;8.20;1.00
38239;DHT22;24035;48.900;9.188;2022-11-10T04:54:00;8.20;1.00
38239;DHT22;24035;48.900;9.188;2022-11-10T04:56:26;8.20;1.00
38239;DHT22;24035;48.900;9.188;2022-11-10T04:58:53;8.10;1.00
38239;DHT22;24035;48.900;9.188;2022-11-10T05:01:22;8.20;1.00
38239;DHT22;24035;48.900;9.188;2022-11-10T05:03:48;8.20;1.00
38239;DHT22;24035;48.900;9.188;2022-11-10T05:06:15;8.20;1.00
38239;DHT22;24035;48.900;9.188;2022-11-10T05:08:41;8.10;1.00
38239;DHT22;24035;48.900;9.188;2022-11-10T05:11:08;8.10;1.00
38239;DHT22;24035;48.900;9.188;2022-11-10T05:13:34;8.00;1.00
38239;DHT22;24035;48.900;9.188;2022-11-10T05:16:00;8.00;1.00
38239;DHT22;24035;48.900;9.188;2022-11-10T05:18:25;7.90;1.00
38239;DHT22;24035;48.900;9.188;2022-11-10T05:20:51;8.00;1.00
38239;DHT22;24035;48.900;9.188;2022-11-10T05:23:19;8.00;1.00
38239;DHT22;24035;48.900;9.188;2022-11-10T05:26:04;8.00;1.00
38239;DHT22;24035;48.900;9.188;2022-11-10T05:28:30;8.00;1.00
38239;DHT22;24035;48.900;9.188;2022-11-10T05:30:56;7.90;1.00
38239;DHT22;24035;48.900;9.188;2022-11-10T05:33:21;7.90;1.00
38239;DHT22;24035;48.900;9.188;2022-11-10T05:35:48;7.80;1.00
38239;DHT22;24035;48.900;9.188;2022-11-10T05:38:14;7.90;1.00
38239;DHT22;24035;48.900;9.188;2022-11-10T05:40:40;7.90;1.00
38239;DHT22;24035;48.900;9.188;2022-11-10T05:43:09;7.80;1.00
38239;DHT22;24035;48.900;9.188;2022-11-10T05:45:35;7.80;1.00
38239;DHT22;24035;48.900;9.188;2022-11-10T05:48:01;7.80;1.00
38239;DHT22;24035;48.900;9.188;2022-11-10T05:50:26;7.90;1.00
38239;DHT22;24035;48.900;9.188;2022-11-10T05:52:53;7.90;1.00
38239;DHT22;24035;48.900;9.188;2022-11-10T05:55:25;7.90;1.00
38239;DHT22;24035;48.900;9.188;2022-11-10T05:57:52;7.90;1.00
38239;DHT22;24035;48.900;9.188;2022-11-10T06:00:21;7.90;1.00
38239;DHT22;24035;48.900;9.188;2022-11-10T06:03:21;7.90;1.00
38239;DHT22;24035;48.900;9.188;2022-11-10T06:05:47;7.90;1.00
38239;DHT22;24035;48.900;9.188;2022-11-10T06:08:13;7.80;1.00
38239;DHT22;24035;48.900;9.188;2022-11-10T06:10:40;7.80;1.00
38239;DHT22;24035;48.900;9.188;2022-11-10T06:13:06;7.90;1.00
38239;DHT22;24035;48.900;9.188;2022-11-10T06:15:32;7.80;1.00
38239;DHT22;24035;48.900;9.188;2022-11-10T06:17:58;7.70;1.00
38239;DHT22;24035;48.900;9.188;2022-11-10T06:20:24;7.70;1.00
38239;DHT22;24035;48.900;9.188;2022-11-10T06:23:01;7.70;1.00
38239;DHT22;24035;48.900;9.188;2022-11-10T06:25:28;7.70;1.00
38239;DHT22;24035;48.900;9.188;2022-11-10T06:27:55;7.70;1.00
38239;DHT22;24035;48.900;9.188;2022-11-10T06:30:21;7.70;1.00
38239;DHT22;24035;48.900;9.188;2022-11-10T06:32:47;7.70;1.00
38239;DHT22;24035;48.900;9.188;2022-11-10T06:35:12;7.60;1.00
38239;DHT22;24035;48.900;9.188;2022-11-10T06:37:38;7.70;1.00
38239;DHT22;24035;48.900;9.188;2022-11-10T06:40:06;7.80;1.00
38239;DHT22;24035;48.900;9.188;2022-11-10T06:42:32;7.70;1.00
38239;DHT22;24035;48.900;9.188;2022-11-10T06:44:58;7.70;1.00
38239;DHT22;24035;48.900;9.188;2022-11-10T06:47:24;7.70;1.00
38239;DHT22;24035;48.900;9.188;2022-11-10T06:49:49;7.70;1.00
38239;DHT22;24035;48.900;9.188;2022-11-10T06:52:15;7.80;1.00
38239;DHT22;24035;48.900;9.188;2022-11-10T06:54:41;7.80;1.00
38239;DHT22;24035;48.900;9.188;2022-11-10T06:57:10;7.90;1.00
38239;DHT22;24035;48.900;9.188;2022-11-10T06:59:35;8.00;1.00
38239;DHT22;24035;48.900;9.188;2022-11-10T07:02:01;8.00;1.00
38239;DHT22;24035;48.900;9.188;2022-11-10T07:04:27;8.20;1.00
38239;DHT22;24035;48.900;9.188;2022-11-10T07:06:53;8.30;1.00
38239;DHT22;24035;48.900;9.188;2022-11-10T07:09:19;8.30;1.00
38239;DHT22;24035;48.900;9.188;2022-11-10T07:11:45;8.30;1.00
38239;DHT22;24035;48.900;9.188;2022-11-10T07:14:11;8.40;1.00
38239;DHT22;24035;48.900;9.188;2022-11-10T07:16:37;8.40;1.00
38239;DHT22;24035;48.900;9.188;2022-11-10T07:19:03;8.60;1.00
38239;DHT22;24035;48.900;9.188;2022-11-10T07:21:28;8.60;1.00
38239;DHT22;24035;48.900;9.188;2022-11-10T07:23:54;8.70;1.00
38239;DHT22;24035;48.900;9.188;2022-11-10T07:26:20;8.70;1.00
38239;DHT22;24035;48.900;9.188;2022-11-10T07:28:46;8.70;1.00
38239;DHT22;24035;48.900;9.188;2022-11-10T07:31:12;8.70;1.00
38239;DHT22;24035;48.900;9.188;2022-11-10T07:33:38;8.70;1.00
38239;DHT22;24035;48.900;9.188;2022-11-10T07:36:04;8.60;1.00
38239;DHT22;24035;48.900;9.188;2022-11-10T07:38:30;8.70;1.00
38239;DHT22;24035;48.900;9.188;2022-11-10T07:40:55;8.70;1.00
38239;DHT22;24035;48.900;9.188;2022-11-10T07:43:23;8.70;1.00
38239;DHT22;24035;48.900;9.188;2022-11-10T07:45:50;8.70;1.00
38239;DHT22;24035;48.900;9.188;2022-11-10T07:48:16;8.70;1.00
38239;DHT22;24035;48.900;9.188;2022-11-10T07:50:43;8.70;1.00
38239;DHT22;24035;48.900;9.188;2022-11-10T07:53:12;8.70;1.00
38239;DHT22;24035;48.900;9.188;2022-11-10T07:55:40;8.70;1.00
38239;DHT22;24035;48.900;9.188;2022-11-10T07:58:07;8.60;99.90
38239;DHT22;24035;48.900;9.188;2022-11-10T08:00:33;8.70;99.90
38239;DHT22;24035;48.900;9.188;2022-11-10T08:03:04;8.70;99.90
38239;DHT22;24035;48.900;9.188;2022-11-10T08:05:30;8.70;99.90
38239;DHT22;24035;48.900;9.188;2022-11-10T08:07:56;8.70;99.90
38239;DHT22;24035;48.900;9.188;2022-11-10T08:10:22;8.70;99.90
38239;DHT22;24035;48.900;9.188;2022-11-10T08:12:57;8.80;99.90
38239;DHT22;24035;48.900;9.188;2022-11-10T08:15:24;8.80;99.90
38239;DHT22;24035;48.900;9.188;2022-11-10T08:17:51;8.80;1.00
38239;DHT22;24035;48.900;9.188;2022-11-10T08:20:17;8.90;1.00
38239;DHT22;24035;48.900;9.188;2022-11-10T08:22:43;8.90;99.90
38239;DHT22;24035;48.900;9.188;2022-11-10T08:25:09;8.90;99.90
38239;DHT22;24035;48.900;9.188;2022-11-10T08:27:35;9.00;19.00
38239;DHT22;24035;48.900;9.188;2022-11-10T08:30:01;9.10;1.00
38239;DHT22;24035;48.900;9.188;2022-11-10T08:32:26;9.10;1.00
38239;DHT22;24035;48.900;9.188;2022-11-10T08:34:52;9.20;99.90
38239;DHT22;24035;48.900;9.188;2022-11-10T08:37:17;9.20;49.10
38239;DHT22;24035;48.900;9.188;2022-11-10T08:39:46;9.20;1.00
38239;DHT22;24035;48.900;9.188;2022-11-10T08:42:11;9.30;1.00
38239;DHT22;24035;48.900;9.188;2022-11-10T08:44:37;9.40;1.00
38239;DHT22;24035;48.900;9.188;2022-11-10T08:47:03;9.50;1.00
38239;DHT22;24035;48.900;9.188;2022-11-10T08:49:28;9.50;1.00
38239;DHT22;24035;48.900;9.188;2022-11-10T08:51:54;9.60;99.90
38239;DHT22;24035;48.900;9.188;2022-11-10T08:54:20;9.70;99.90
38239;DHT22;24035;48.900;9.188;2022-11-10T08:56:46;9.80;1.00
38239;DHT22;24035;48.900;9.188;2022-11-10T08:59:11;9.90;1.00
38239;DHT22;24035;48.900;9.188;2022-11-10T09:01:37;9.90;1.00
38239;DHT22;24035;48.900;9.188;2022-11-10T09:04:03;9.90;1.00
38239;DHT22;24035;48.900;9.188;2022-11-10T09:06:28;10.00;99.90
38239;DHT22;24035;48.900;9.188;2022-11-10T09:08:54;10.20;78.90
38239;DHT22;24035;48.900;9.188;2022-11-10T09:11:19;10.30;1.00
38239;DHT22;24035;48.900;9.188;2022-11-10T09:13:45;10.20;93.10
38239;DHT22;24035;48.900;9.188;2022-11-10T09:16:12;10.30;1.00
38239;DHT22;24035;48.900;9.188;2022-11-10T09:18:38;10.40;99.90
38239;DHT22;24035;48.900;9.188;2022-11-10T09:21:03;10.50;99.90
38239;DHT22;24035;48.900;9.188;2022-11-10T09:23:36;10.50;64.40
38239;DHT22;24035;48.900;9.188;2022-11-10T09:26:02;10.60;99.90
38239;DHT22;24035;48.900;9.188;2022-11-10T09:28:30;10.60;99.90
38239;DHT22;24035;48.900;9.188;2022-11-10T09:30:56;10.70;99.90
38239;DHT22;24035;48.900;9.188;2022-11-10T09:33:21;10.80;99.90
38239;DHT22;24035;48.900;9.188;2022-11-10T09:35:47;10.80;99.90
38239;DHT22;24035;48.900;9.188;2022-11-10T09:38:13;10.90;92.10
38239;DHT22;24035;48.900;9.188;2022-11-10T09:43:30;11.20;1.00
38239;DHT22;24035;48.900;9.188;2022-11-10T09:46:00;11.20;1.00
38239;DHT22;24035;48.900;9.188;2022-11-10T09:48:30;11.30;99.90
38239;DHT22;24035;48.900;9.188;2022-11-10T09:51:08;11.50;97.60
38239;DHT22;24035;48.900;9.188;2022-11-10T09:53:46;11.40;99.90
38239;DHT22;24035;48.900;9.188;2022-11-10T09:58:55;11.60;1.00
38239;DHT22;24035;48.900;9.188;2022-11-10T10:01:50;11.60;1.00
38239;DHT22;24035;48.900;9.188;2022-11-10T10:07:06;11.60;99.90
38239;DHT22;24035;48.900;9.188;2022-11-10T10:09:43;11.70;1.00
38239;DHT22;24035;48.900;9.188;2022-11-10T10:12:41;11.80;96.90
38239;DHT22;24035;48.900;9.188;2022-11-10T10:15:34;11.90;1.00
38239;DHT22;24035;48.900;9.188;2022-11-10T10:18:22;11.90;1.00
38239;DHT22;24035;48.900;9.188;2022-11-10T10:23:49;12.00;1.00
38239;DHT22;24035;48.900;9.188;2022-11-10T10:26:18;12.10;1.00
38239;DHT22;24035;48.900;9.188;2022-11-10T10:28:47;12.10;1.00
38239;DHT22;24035;48.900;9.188;2022-11-10T10:31:22;12.20;1.00
38239;DHT22;24035;48.900;9.188;2022-11-10T10:33:52;12.20;1.00
38239;DHT22;24035;48.900;9.188;2022-11-10T10:36:22;12.20;99.90
38239;DHT22;24035;48.900;9.188;2022-11-10T10:38:52;12.30;99.90
38239;DHT22;24035;48.900;9.188;2022-11-10T10:41:30;12.30;99.90
38239;DHT22;24035;48.900;9.188;2022-11-10T10:43:59;12.40;99.90
38239;DHT22;24035;48.900;9.188;2022-11-10T10:46:25;12.50;99.90
38239;DHT22;24035;48.900;9.188;2022-11-10T10:49:13;12.50;18.80
38239;DHT22;24035;48.900;9.188;2022-11-10T10:51:39;12.50;25.80
38239;DHT22;24035;48.900;9.188;2022-11-10T10:56:47;12.60;99.90
38239;DHT22;24035;48.900;9.188;2022-11-10T10:59:19;12.70;1.00
38239;DHT22;24035;48.900;9.188;2022-11-10T11:01:45;12.70;1.00
38239;DHT22;24035;48.900;9.188;2022-11-10T11:07:02;12.80;1.00
38239;DHT22;24035;48.900;9.188;2022-11-10T11:09:41;12.90;1.00
38239;DHT22;24035;48.900;9.188;2022-11-10T11:12:11;12.90;1.00
38239;DHT22;24035;48.900;9.188;2022-11-10T11:14:37;12.90;1.00
38239;DHT22;24035;48.900;9.188;2022-11-10T11:17:12;13.00;1.00
38239;DHT22;24035;48.900;9.188;2022-11-10T11:19:41;13.00;1.00
38239;DHT22;24035;48.900;9.188;2022-11-10T11:22:27;13.10;1.00
38239;DHT22;24035;48.900;9.188;2022-11-10T11:30:16;13.30;1.00
38239;DHT22;24035;48.900;9.188;2022-11-10T11:38:34;13.40;1.00
38239;DHT22;24035;48.900;9.188;2022-11-10T11:41:21;13.40;99.90
38239;DHT22;24035;48.900;9.188;2022-11-10T11:46:42;13.50;99.90
38239;DHT22;24035;48.900;9.188;2022-11-10T11:49:29;13.50;99.90
38239;DHT22;24035;48.900;9.188;2022-11-10T11:52:14;13.60;99.90
38239;DHT22;24035;48.900;9.188;2022-11-10T11:55:11;13.60;99.90
38239;DHT22;24035;48.900;9.188;2022-11-10T12:08:56;13.50;99.90
38239;DHT22;24035;48.900;9.188;2022-11-10T12:14:52;13.40;99.90
38239;DHT22;24035;48.900;9.188;2022-11-10T12:22:54;13.30;99.90
38239;DHT22;24035;48.900;9.188;2022-11-10T12:25:37;13.40;99.90
38239;DHT22;24035;48.900;9.188;2022-11-10T12:28:17;13.40;99.90
38239;DHT22;24035;48.900;9.188;2022-11-10T12:30:46;13.50;18.60
38239;DHT22;24035;48.900;9.188;2022-11-10T12:33:55;13.50;7.50
38239;DHT22;24035;48.900;9.188;2022-11-10T12:36:13;13.50;99.90
38239;DHT22;24035;48.900;9.188;2022-11-10T12:38:51;13.50;42.00
38239;DHT22;24035;48.900;9.188;2022-11-10T12:41:19;13.60;32.10
38239;DHT22;24035;48.900;9.188;2022-11-10T12:44:11;13.60;1.00
38239;DHT22;24035;48.900;9.188;2022-11-10T12:46:40;13.50;1.00
38239;DHT22;24035;48.900;9.188;2022-11-10T12:54:27;13.70;1.00
38239;DHT22;24035;48.900;9.188;2022-11-10T12:57:01;13.70;1.00
38239;DHT22;24035;48.900;9.188;2022-11-10T12:59:33;13.70;1.00
38239;DHT22;24035;48.900;9.188;2022-11-10T13:02:47;13.70;1.00
38239;DHT22;24035;48.900;9.188;2022-11-10T13:07:40;13.70;1.00
38239;DHT22;24035;48.900;9.188;2022-11-10T13:10:25;13.70;1.00
38239;DHT22;24035;48.900;9.188;2022-11-10T13:13:17;13.70;1.00
38239;DHT22;24035;48.900;9.188;2022-11-10T13:15:46;13.90;1.00
38239;DHT22;24035;48.900;9.188;2022-11-10T13:21:00;13.80;1.00
38239;DHT22;24035;48.900;9.188;2022-11-10T13:26:44;13.90;1.00
38239;DHT22;24035;48.900;9.188;2022-11-10T13:36:37;13.90;1.00
38239;DHT22;24035;48.900;9.188;2022-11-10T13:39:22;13.80;1.00
38239;DHT22;24035;48.900;9.188;2022-11-10T13:44:37;13.60;1.00
38239;DHT22;24035;48.900;9.188;2022-11-10T13:47:24;13.60;1.00
38239;DHT22;24035;48.900;9.188;2022-11-10T13:56:56;13.70;1.00
38239;DHT22;24035;48.900;9.188;2022-11-10T13:59:27;13.70;1.00
38239;DHT22;24035;48.900;9.188;2022-11-10T14:05:04;13.90;1.00
38239;DHT22;24035;48.900;9.188;2022-11-10T14:07:35;13.90;1.00
38239;DHT22;24035;48.900;9.188;2022-11-10T14:10:12;13.80;1.00
38239;DHT22;24035;48.900;9.188;2022-11-10T14:12:51;13.80;1.00
38239;DHT22;24035;48.900;9.188;2022-11-10T14:15:21;13.80;1.00
38239;DHT22;24035;48.900;9.188;2022-11-10T14:17:52;13.70;1.00
38239;DHT22;24035;48.900;9.188;2022-11-10T14:20:29;13.60;1.00
38239;DHT22;24035;48.900;9.188;2022-11-10T14:22:58;13.60;1.00
38239;DHT22;24035;48.900;9.188;2022-11-10T14:25:39;13.60;1.00
38239;DHT22;24035;48.900;9.188;2022-11-10T14:28:27;13.60;1.00
38239;DHT22;24035;48.900;9.188;2022-11-10T14:30:54;13.60;1.00
38239;DHT22;24035;48.900;9.188;2022-11-10T14:33:20;13.70;1.00
38239;DHT22;24035;48.900;9.188;2022-11-10T14:38:23;13.60;1.00
38239;DHT22;24035;48.900;9.188;2022-11-10T14:40:50;13.60;1.00
38239;DHT22;24035;48.900;9.188;2022-11-10T14:43:28;13.60;1.00
38239;DHT22;24035;48.900;9.188;2022-11-10T14:45:54;13.50;1.00
38239;DHT22;24035;48.900;9.188;2022-11-10T14:48:22;13.50;21.50
38239;DHT22;24035;48.900;9.188;2022-11-10T14:50:49;13.50;55.40
38239;DHT22;24035;48.900;9.188;2022-11-10T14:53:32;13.50;99.90
38239;DHT22;24035;48.900;9.188;2022-11-10T14:55:59;13.50;99.90
38239;DHT22;24035;48.900;9.188;2022-11-10T14:58:32;13.50;99.90
38239;DHT22;24035;48.900;9.188;2022-11-10T15:01:00;13.30;99.90
38239;DHT22;24035;48.900;9.188;2022-11-10T15:03:38;13.10;99.90
38239;DHT22;24035;48.900;9.188;2022-11-10T15:06:08;13.10;99.90
38239;DHT22;24035;48.900;9.188;2022-11-10T15:08:36;12.90;99.90
38239;DHT22;24035;48.900;9.188;2022-11-10T15:11:02;12.80;99.90
38239;DHT22;24035;48.900;9.188;2022-11-10T15:18:54;12.40;1.00
38239;DHT22;24035;48.900;9.188;2022-11-10T15:21:28;12.30;1.00
38239;DHT22;24035;48.900;9.188;2022-11-10T15:23:55;12.30;1.00
38239;DHT22;24035;48.900;9.188;2022-11-10T15:26:23;12.20;1.00
38239;DHT22;24035;48.900;9.188;2022-11-10T15:28:50;12.10;1.00
38239;DHT22;24035;48.900;9.188;2022-11-10T15:31:28;12.10;1.00
38239;DHT22;24035;48.900;9.188;2022-11-10T15:33:57;12.20;39.90
38239;DHT22;24035;48.900;9.188;2022-11-10T15:41:45;12.20;1.00
38239;DHT22;24035;48.900;9.188;2022-11-10T15:44:16;12.10;49.20
38239;DHT22;24035;48.900;9.188;2022-11-10T15:46:43;12.10;96.10
38239;DHT22;24035;48.900;9.188;2022-11-10T15:49:30;11.90;99.90
38239;DHT22;24035;48.900;9.188;2022-11-10T15:51:58;11.70;99.90
38239;DHT22;24035;48.900;9.188;2022-11-10T15:54:28;11.60;1.00
38239;DHT22;24035;48.900;9.188;2022-11-10T15:56:53;11.50;1.00
38239;DHT22;24035;48.900;9.188;2022-11-10T15:59:19;11.50;1.00
38239;DHT22;24035;48.900;9.188;2022-11-10T16:01:45;11.40;1.00
38239;DHT22;24035;48.900;9.188;2022-11-10T16:04:10;11.30;1.00
38239;DHT22;24035;48.900;9.188;2022-11-10T16:06:37;11.20;1.00
38239;DHT22;24035;48.900;9.188;2022-11-10T16:09:03;11.10;99.90
38239;DHT22;24035;48.900;9.188;2022-11-10T16:11:30;11.00;99.90
38239;DHT22;24035;48.900;9.188;2022-11-10T16:13:56;10.80;1.00
38239;DHT22;24035;48.900;9.188;2022-11-10T16:16:22;10.70;1.00
38239;DHT22;24035;48.900;9.188;2022-11-10T16:18:49;10.70;1.00
38239;DHT22;24035;48.900;9.188;2022-11-10T16:21:18;10.70;1.00
38239;DHT22;24035;48.900;9.188;2022-11-10T16:23:44;10.60;1.00
38239;DHT22;24035;48.900;9.188;2022-11-10T16:26:13;10.50;1.00
38239;DHT22;24035;48.900;9.188;2022-11-10T16:28:39;10.40;96.80
38239;DHT22;24035;48.900;9.188;2022-11-10T16:31:10;10.30;99.90
38239;DHT22;24035;48.900;9.188;2022-11-10T16:33:36;10.20;1.00
38239;DHT22;24035;48.900;9.188;2022-11-10T16:36:02;10.20;1.00
38239;DHT22;24035;48.900;9.188;2022-11-10T16:38:29;10.10;29.40
38239;DHT22;24035;48.900;9.188;2022-11-10T16:40:58;9.90;99.90
38239;DHT22;24035;48.900;9.188;2022-11-10T16:43:24;9.80;99.90
38239;DHT22;24035;48.900;9.188;2022-11-10T16:45:52;9.70;1.00
38239;DHT22;24035;48.900;9.188;2022-11-10T16:48:23;9.60;1.00
38239;DHT22;24035;48.900;9.188;2022-11-10T16:50:53;9.50;99.90
38239;DHT22;24035;48.900;9.188;2022-11-10T16:53:21;9.40;99.90
38239;DHT22;24035;48.900;9.188;2022-11-10T16:55:48;9.30;99.90
38239;DHT22;24035;48.900;9.188;2022-11-10T16:58:13;9.20;1.00
38239;DHT22;24035;48.900;9.188;2022-11-10T17:00:39;9.00;1.00
38239;DHT22;24035;48.900;9.188;2022-11-10T17:03:20;9.00;94.70
38239;DHT22;24035;48.900;9.188;2022-11-10T17:05:48;9.00;99.90
38239;DHT22;24035;48.900;9.188;2022-11-10T17:08:21;8.90;99.90
38239;DHT22;24035;48.900;9.188;2022-11-10T17:10:51;8.80;99.90
38239;DHT22;24035;48.900;9.188;2022-11-10T17:13:17;8.70;1.00
38239;DHT22;24035;48.900;9.188;2022-11-10T17:15:44;8.60;1.00
38239;DHT22;24035;48.900;9.188;2022-11-10T17:18:14;8.60;1.00
38239;DHT22;24035;48.900;9.188;2022-11-10T17:20:43;8.60;99.90
38239;DHT22;24035;48.900;9.188;2022-11-10T17:23:13;8.50;99.90
38239;DHT22;24035;48.900;9.188;2022-11-10T17:25:40;8.40;99.90
38239;DHT22;24035;48.900;9.188;2022-11-10T17:28:14;8.30;99.90
38239;DHT22;24035;48.900;9.188;2022-11-10T17:30:41;8.40;1.00
38239;DHT22;24035;48.900;9.188;2022-11-10T17:33:07;8.50;99.90
38239;DHT22;24035;48.900;9.188;2022-11-10T17:35:42;8.40;1.00
38239;DHT22;24035;48.900;9.188;2022-11-10T17:38:10;8.30;1.00
38239;DHT22;24035;48.900;9.188;2022-11-10T17:40:36;8.30;99.90
38239;DHT22;24035;48.900;9.188;2022-11-10T17:43:02;8.20;1.00
38239;DHT22;24035;48.900;9.188;2022-11-10T17:45:28;8.10;1.80